sensor_id;sensor_type;location;lat;lon;timestamp;P1;durP1;ratioP1;P2;durP2;ratioP2
6013;SDS011;3035;49.928;8.410;2023-06-10T00:01:23;9.70;;;6.30;;
6013;SDS011;3035;49.928;8.410;2023-06-10T00:03:53;9.33;;;6.80;;
6013;SDS011;3035;49.928;8.410;2023-06-10T00:06:22;12.23;;;6.60;;
6013;SDS011;3035;49.928;8.410;2023-06-10T00:08:51;10.83;;;6.80;;
6013;SDS011;3035;49.928;8.410;2023-06-10T00:11:21;9.93;;;6.37;;
6013;SDS011;3035;49.928;8.410;2023-06-10T00:13:50;10.63;;;6.80;;
6013;SDS011;3035;49.928;8.410;2023-06-10T00:16:19;13.73;;;7.10;;
6013;SDS011;3035;49.928;8.410;2023-06-10T00:18:48;10.63;;;7.33;;
6013;SDS011;3035;49.928;8.410;2023-06-10T00:21:18;24.73;;;7.10;;
6013;SDS011;3035;49.928;8.410;2023-06-10T00:23:47;18.27;;;7.33;;
6013;SDS011;3035;49.928;8.410;2023-06-10T00:26:16;17.37;;;8.00;;
6013;SDS011;3035;49.928;8.410;2023-06-10T00:28:45;8.53;;;7.00;;
6013;SDS011;3035;49.928;8.410;2023-06-10T00:31:15;8.83;;;6.70;;
6013;SDS011;3035;49.928;8.410;2023-06-10T00:33:44;10.30;;;7.50;;
6013;SDS011;3035;49.928;8.410;2023-06-10T00:36:13;10.90;;;7.03;;
6013;SDS011;3035;49.928;8.410;2023-06-10T00:38:42;9.00;;;8.10;;
6013;SDS011;3035;49.928;8.410;2023-06-10T00:41:12;10.13;;;7.70;;
6013;SDS011;3035;49.928;8.410;2023-06-10T00:43:41;14.20;;;7.13;;
6013;SDS011;3035;49.928;8.410;2023-06-10T00:46:11;14.37;;;7.87;;
6013;SDS011;3035;49.928;8.410;2023-06-10T00:48:40;11.70;;;7.50;;
6013;SDS011;3035;49.928;8.410;2023-06-10T00:51:10;10.23;;;7.93;;
6013;SDS011;3035;49.928;8.410;2023-06-10T00:53:39;10.63;;;7.47;;
6013;SDS011;3035;49.928;8.410;2023-06-10T00:56:08;9.53;;;7.70;;
6013;SDS011;3035;49.928;8.410;2023-06-10T00:58:37;15.10;;;8.30;;
6013;SDS011;3035;49.928;8.410;2023-06-10T01:01:06;8.03;;;6.93;;
6013;SDS011;3035;49.928;8.410;2023-06-10T01:03:34;9.20;;;7.13;;
6013;SDS011;3035;49.928;8.410;2023-06-10T01:06:23;11.40;;;7.93;;
6013;SDS011;3035;49.928;8.410;2023-06-10T01:08:41;10.10;;;8.57;;
6013;SDS011;3035;49.928;8.410;2023-06-10T01:11:11;9.83;;;6.77;;
6013;SDS011;3035;49.928;8.410;2023-06-10T01:13:38;10.13;;;8.00;;
6013;SDS011;3035;49.928;8.410;2023-06-10T01:16:07;18.50;;;8.20;;
6013;SDS011;3035;49.928;8.410;2023-06-10T01:18:35;11.30;;;8.23;;
6013;SDS011;3035;49.928;8.410;2023-06-10T01:21:03;10.87;;;7.83;;
6013;SDS011;3035;49.928;8.410;2023-06-10T01:23:31;8.50;;;7.60;;
6013;SDS011;3035;49.928;8.410;2023-06-10T01:26:01;8.87;;;7.23;;
6013;SDS011;3035;49.928;8.410;2023-06-10T01:28:33;9.83;;;7.17;;
6013;SDS011;3035;49.928;8.410;2023-06-10T01:31:06;12.50;;;7.93;;
6013;SDS011;3035;49.928;8.410;2023-06-10T01:33:37;10.77;;;7.67;;
6013;SDS011;3035;49.928;8.410;2023-06-10T01:36:05;9.20;;;7.70;;
6013;SDS011;3035;49.928;8.410;2023-06-10T01:38:37;15.03;;;8.77;;
6013;SDS011;3035;49.928;8.410;2023-06-10T01:41:05;18.03;;;7.53;;
6013;SDS011;3035;49.928;8.410;2023-06-10T01:43:36;13.13;;;7.97;;
6013;SDS011;3035;49.928;8.410;2023-06-10T01:46:04;12.67;;;7.50;;
6013;SDS011;3035;49.928;8.410;2023-06-10T01:48:33;12.00;;;8.17;;
6013;SDS011;3035;49.928;8.410;2023-06-10T01:51:02;9.53;;;7.90;;
6013;SDS011;3035;49.928;8.410;2023-06-10T01:53:30;12.17;;;8.27;;
6013;SDS011;3035;49.928;8.410;2023-06-10T01:55:58;12.93;;;7.90;;
6013;SDS011;3035;49.928;8.410;2023-06-10T01:58:27;9.40;;;7.50;;
6013;SDS011;3035;49.928;8.410;2023-06-10T02:00:55;9.80;;;7.30;;
6013;SDS011;3035;49.928;8.410;2023-06-10T02:03:24;14.00;;;8.03;;
6013;SDS011;3035;49.928;8.410;2023-06-10T02:05:53;10.10;;;7.80;;
6013;SDS011;3035;49.928;8.410;2023-06-10T02:08:23;10.00;;;7.87;;
6013;SDS011;3035;49.928;8.410;2023-06-10T02:10:52;13.40;;;8.33;;
6013;SDS011;3035;49.928;8.410;2023-06-10T02:13:20;12.20;;;8.00;;
6013;SDS011;3035;49.928;8.410;2023-06-10T02:15:48;11.50;;;8.20;;
6013;SDS011;3035;49.928;8.410;2023-06-10T02:18:16;9.80;;;7.20;;
6013;SDS011;3035;49.928;8.410;2023-06-10T02:20:45;11.33;;;8.93;;
6013;SDS011;3035;49.928;8.410;2023-06-10T02:23:13;10.90;;;7.80;;
6013;SDS011;3035;49.928;8.410;2023-06-10T02:25:41;10.60;;;8.53;;
6013;SDS011;3035;49.928;8.410;2023-06-10T02:28:09;11.13;;;8.40;;
6013;SDS011;3035;49.928;8.410;2023-06-10T02:30:40;12.63;;;8.50;;
6013;SDS011;3035;49.928;8.410;2023-06-10T02:33:08;11.03;;;7.73;;
6013;SDS011;3035;49.928;8.410;2023-06-10T02:35:37;11.60;;;8.30;;
6013;SDS011;3035;49.928;8.410;2023-06-10T02:38:05;11.43;;;7.97;;
6013;SDS011;3035;49.928;8.410;2023-06-10T02:40:34;12.57;;;8.80;;
6013;SDS011;3035;49.928;8.410;2023-06-10T02:43:02;11.87;;;8.20;;
6013;SDS011;3035;49.928;8.410;2023-06-10T02:45:30;10.13;;;8.40;;
6013;SDS011;3035;49.928;8.410;2023-06-10T02:47:58;12.73;;;9.00;;
6013;SDS011;3035;49.928;8.410;2023-06-10T02:50:26;12.73;;;7.90;;
6013;SDS011;3035;49.928;8.410;2023-06-10T02:52:56;14.73;;;8.40;;
6013;SDS011;3035;49.928;8.410;2023-06-10T02:55:24;11.93;;;8.20;;
6013;SDS011;3035;49.928;8.410;2023-06-10T02:57:52;13.20;;;7.77;;
6013;SDS011;3035;49.928;8.410;2023-06-10T03:00:20;9.10;;;7.60;;
6013;SDS011;3035;49.928;8.410;2023-06-10T03:02:50;11.70;;;8.17;;
6013;SDS011;3035;49.928;8.410;2023-06-10T03:05:19;11.43;;;8.07;;
6013;SDS011;3035;49.928;8.410;2023-06-10T03:07:48;15.90;;;8.07;;
6013;SDS011;3035;49.928;8.410;2023-06-10T03:10:17;10.93;;;8.27;;
6013;SDS011;3035;49.928;8.410;2023-06-10T03:12:47;13.70;;;8.47;;
6013;SDS011;3035;49.928;8.410;2023-06-10T03:15:16;12.13;;;8.70;;
6013;SDS011;3035;49.928;8.410;2023-06-10T03:17:45;11.40;;;8.67;;
6013;SDS011;3035;49.928;8.410;2023-06-10T03:20:14;12.57;;;8.40;;
6013;SDS011;3035;49.928;8.410;2023-06-10T03:22:44;14.63;;;8.97;;
6013;SDS011;3035;49.928;8.410;2023-06-10T03:25:13;17.90;;;7.40;;
6013;SDS011;3035;49.928;8.410;2023-06-10T03:27:42;9.83;;;8.47;;
6013;SDS011;3035;49.928;8.410;2023-06-10T03:30:12;10.37;;;8.97;;
6013;SDS011;3035;49.928;8.410;2023-06-10T03:32:41;12.07;;;7.53;;
6013;SDS011;3035;49.928;8.410;2023-06-10T03:35:10;9.57;;;7.50;;
6013;SDS011;3035;49.928;8.410;2023-06-10T03:37:40;10.93;;;8.03;;
6013;SDS011;3035;49.928;8.410;2023-06-10T03:40:09;9.53;;;7.50;;
6013;SDS011;3035;49.928;8.410;2023-06-10T03:42:38;10.23;;;7.33;;
6013;SDS011;3035;49.928;8.410;2023-06-10T03:45:08;10.03;;;7.67;;
6013;SDS011;3035;49.928;8.410;2023-06-10T03:47:37;10.00;;;7.13;;
6013;SDS011;3035;49.928;8.410;2023-06-10T03:50:05;10.17;;;7.73;;
6013;SDS011;3035;49.928;8.410;2023-06-10T03:52:34;9.03;;;7.73;;
6013;SDS011;3035;49.928;8.410;2023-06-10T03:55:02;22.17;;;7.70;;
6013;SDS011;3035;49.928;8.410;2023-06-10T03:57:30;9.40;;;7.17;;
6013;SDS011;3035;49.928;8.410;2023-06-10T03:59:58;10.13;;;7.30;;
6013;SDS011;3035;49.928;8.410;2023-06-10T04:02:26;9.37;;;6.90;;
6013;SDS011;3035;49.928;8.410;2023-06-10T04:04:54;10.10;;;6.63;;
6013;SDS011;3035;49.928;8.410;2023-06-10T04:07:23;9.73;;;7.10;;
6013;SDS011;3035;49.928;8.410;2023-06-10T04:09:51;11.50;;;7.67;;
6013;SDS011;3035;49.928;8.410;2023-06-10T04:12:19;8.53;;;6.87;;
6013;SDS011;3035;49.928;8.410;2023-06-10T04:14:47;16.00;;;6.93;;
6013;SDS011;3035;49.928;8.410;2023-06-10T04:17:15;10.40;;;7.00;;
6013;SDS011;3035;49.928;8.410;2023-06-10T04:19:44;17.53;;;9.47;;
6013;SDS011;3035;49.928;8.410;2023-06-10T04:22:12;10.23;;;7.23;;
6013;SDS011;3035;49.928;8.410;2023-06-10T04:24:40;11.87;;;7.37;;
6013;SDS011;3035;49.928;8.410;2023-06-10T04:27:08;12.00;;;6.90;;
6013;SDS011;3035;49.928;8.410;2023-06-10T04:29:37;10.03;;;7.07;;
6013;SDS011;3035;49.928;8.410;2023-06-10T04:32:05;14.20;;;7.30;;
6013;SDS011;3035;49.928;8.410;2023-06-10T04:34:34;31.50;;;8.33;;
6013;SDS011;3035;49.928;8.410;2023-06-10T04:37:02;13.73;;;6.83;;
6013;SDS011;3035;49.928;8.410;2023-06-10T04:39:30;9.37;;;6.90;;
6013;SDS011;3035;49.928;8.410;2023-06-10T04:41:58;14.33;;;6.23;;
6013;SDS011;3035;49.928;8.410;2023-06-10T04:44:26;13.43;;;7.60;;
6013;SDS011;3035;49.928;8.410;2023-06-10T04:46:54;9.83;;;7.30;;
6013;SDS011;3035;49.928;8.410;2023-06-10T04:49:23;10.97;;;6.80;;
6013;SDS011;3035;49.928;8.410;2023-06-10T04:51:51;7.90;;;7.10;;
6013;SDS011;3035;49.928;8.410;2023-06-10T04:54:19;7.43;;;6.17;;
6013;SDS011;3035;49.928;8.410;2023-06-10T04:56:47;10.07;;;7.37;;
6013;SDS011;3035;49.928;8.410;2023-06-10T04:59:15;10.90;;;6.93;;
6013;SDS011;3035;49.928;8.410;2023-06-10T05:01:44;8.07;;;6.53;;
6013;SDS011;3035;49.928;8.410;2023-06-10T05:04:12;7.33;;;6.03;;
6013;SDS011;3035;49.928;8.410;2023-06-10T05:06:40;9.77;;;6.40;;
6013;SDS011;3035;49.928;8.410;2023-06-10T05:09:09;8.67;;;6.57;;
6013;SDS011;3035;49.928;8.410;2023-06-10T05:11:36;6.60;;;5.80;;
6013;SDS011;3035;49.928;8.410;2023-06-10T05:14:05;9.03;;;6.20;;
6013;SDS011;3035;49.928;8.410;2023-06-10T05:16:33;11.17;;;6.43;;
6013;SDS011;3035;49.928;8.410;2023-06-10T05:19:01;9.13;;;6.30;;
6013;SDS011;3035;49.928;8.410;2023-06-10T05:21:29;7.73;;;5.87;;
6013;SDS011;3035;49.928;8.410;2023-06-10T05:23:57;9.00;;;5.50;;
6013;SDS011;3035;49.928;8.410;2023-06-10T05:26:26;10.07;;;6.00;;
6013;SDS011;3035;49.928;8.410;2023-06-10T05:28:54;10.53;;;7.33;;
6013;SDS011;3035;49.928;8.410;2023-06-10T05:31:22;11.47;;;5.97;;
6013;SDS011;3035;49.928;8.410;2023-06-10T05:33:50;12.80;;;5.50;;
6013;SDS011;3035;49.928;8.410;2023-06-10T05:36:18;7.20;;;5.87;;
6013;SDS011;3035;49.928;8.410;2023-06-10T05:38:47;7.10;;;5.63;;
6013;SDS011;3035;49.928;8.410;2023-06-10T05:41:16;8.57;;;5.33;;
6013;SDS011;3035;49.928;8.410;2023-06-10T05:43:44;9.43;;;5.50;;
6013;SDS011;3035;49.928;8.410;2023-06-10T05:46:13;8.37;;;6.07;;
6013;SDS011;3035;49.928;8.410;2023-06-10T05:48:43;9.80;;;5.60;;
6013;SDS011;3035;49.928;8.410;2023-06-10T05:51:12;7.23;;;5.37;;
6013;SDS011;3035;49.928;8.410;2023-06-10T05:53:41;14.30;;;6.10;;
6013;SDS011;3035;49.928;8.410;2023-06-10T05:56:11;8.37;;;6.07;;
6013;SDS011;3035;49.928;8.410;2023-06-10T05:58:40;10.33;;;5.73;;
6013;SDS011;3035;49.928;8.410;2023-06-10T06:01:09;7.20;;;5.93;;
6013;SDS011;3035;49.928;8.410;2023-06-10T06:03:39;10.73;;;5.27;;
6013;SDS011;3035;49.928;8.410;2023-06-10T06:06:08;8.70;;;5.57;;
6013;SDS011;3035;49.928;8.410;2023-06-10T06:08:37;10.40;;;5.70;;
6013;SDS011;3035;49.928;8.410;2023-06-10T06:11:06;8.00;;;5.47;;
6013;SDS011;3035;49.928;8.410;2023-06-10T06:13:36;8.67;;;5.20;;
6013;SDS011;3035;49.928;8.410;2023-06-10T06:16:05;10.47;;;6.27;;
6013;SDS011;3035;49.928;8.410;2023-06-10T06:18:34;8.53;;;5.50;;
6013;SDS011;3035;49.928;8.410;2023-06-10T06:21:03;9.23;;;6.10;;
6013;SDS011;3035;49.928;8.410;2023-06-10T06:23:33;6.20;;;5.30;;
6013;SDS011;3035;49.928;8.410;2023-06-10T06:26:02;10.10;;;5.97;;
6013;SDS011;3035;49.928;8.410;2023-06-10T06:28:31;6.20;;;5.13;;
6013;SDS011;3035;49.928;8.410;2023-06-10T06:31:00;7.70;;;5.77;;
6013;SDS011;3035;49.928;8.410;2023-06-10T06:33:30;7.83;;;4.97;;
6013;SDS011;3035;49.928;8.410;2023-06-10T06:35:59;8.53;;;5.30;;
6013;SDS011;3035;49.928;8.410;2023-06-10T06:38:28;10.73;;;5.00;;
6013;SDS011;3035;49.928;8.410;2023-06-10T06:40:57;9.13;;;5.13;;
6013;SDS011;3035;49.928;8.410;2023-06-10T06:43:29;10.07;;;6.20;;
6013;SDS011;3035;49.928;8.410;2023-06-10T06:45:58;8.73;;;5.60;;
6013;SDS011;3035;49.928;8.410;2023-06-10T06:48:27;9.10;;;5.10;;
6013;SDS011;3035;49.928;8.410;2023-06-10T06:50:57;7.20;;;5.47;;
6013;SDS011;3035;49.928;8.410;2023-06-10T06:53:26;8.30;;;5.63;;
6013;SDS011;3035;49.928;8.410;2023-06-10T06:55:55;10.97;;;5.70;;
6013;SDS011;3035;49.928;8.410;2023-06-10T06:58:25;6.93;;;5.23;;
6013;SDS011;3035;49.928;8.410;2023-06-10T07:00:54;18.17;;;5.73;;
6013;SDS011;3035;49.928;8.410;2023-06-10T07:03:23;7.50;;;6.23;;
6013;SDS011;3035;49.928;8.410;2023-06-10T07:05:52;7.97;;;6.50;;
6013;SDS011;3035;49.928;8.410;2023-06-10T07:08:22;6.90;;;5.20;;
6013;SDS011;3035;49.928;8.410;2023-06-10T07:10:51;7.00;;;5.90;;
6013;SDS011;3035;49.928;8.410;2023-06-10T07:13:20;8.43;;;5.00;;
6013;SDS011;3035;49.928;8.410;2023-06-10T07:15:49;10.60;;;5.53;;
6013;SDS011;3035;49.928;8.410;2023-06-10T07:18:19;10.07;;;5.83;;
6013;SDS011;3035;49.928;8.410;2023-06-10T07:20:48;6.50;;;5.50;;
6013;SDS011;3035;49.928;8.410;2023-06-10T07:23:17;7.37;;;5.80;;
6013;SDS011;3035;49.928;8.410;2023-06-10T07:25:46;17.83;;;5.40;;
6013;SDS011;3035;49.928;8.410;2023-06-10T07:28:16;7.60;;;5.90;;
6013;SDS011;3035;49.928;8.410;2023-06-10T07:30:45;6.63;;;5.27;;
6013;SDS011;3035;49.928;8.410;2023-06-10T07:33:14;10.23;;;6.00;;
6013;SDS011;3035;49.928;8.410;2023-06-10T07:35:43;9.60;;;6.10;;
6013;SDS011;3035;49.928;8.410;2023-06-10T07:38:13;8.40;;;5.37;;
6013;SDS011;3035;49.928;8.410;2023-06-10T07:40:42;7.83;;;5.60;;
6013;SDS011;3035;49.928;8.410;2023-06-10T07:43:11;9.93;;;5.20;;
6013;SDS011;3035;49.928;8.410;2023-06-10T07:45:41;13.90;;;6.10;;
6013;SDS011;3035;49.928;8.410;2023-06-10T07:48:10;8.17;;;6.10;;
6013;SDS011;3035;49.928;8.410;2023-06-10T07:50:39;9.30;;;5.90;;
6013;SDS011;3035;49.928;8.410;2023-06-10T07:53:08;6.90;;;5.43;;
6013;SDS011;3035;49.928;8.410;2023-06-10T07:55:38;6.93;;;6.23;;
6013;SDS011;3035;49.928;8.410;2023-06-10T07:58:07;10.43;;;6.33;;
6013;SDS011;3035;49.928;8.410;2023-06-10T08:00:36;8.83;;;5.30;;
6013;SDS011;3035;49.928;8.410;2023-06-10T08:03:05;7.10;;;4.83;;
6013;SDS011;3035;49.928;8.410;2023-06-10T08:05:35;12.83;;;5.70;;
6013;SDS011;3035;49.928;8.410;2023-06-10T08:08:04;8.30;;;6.00;;
6013;SDS011;3035;49.928;8.410;2023-06-10T08:10:33;8.50;;;5.57;;
6013;SDS011;3035;49.928;8.410;2023-06-10T08:13:02;7.93;;;4.97;;
6013;SDS011;3035;49.928;8.410;2023-06-10T08:15:32;9.10;;;5.33;;
6013;SDS011;3035;49.928;8.410;2023-06-10T08:18:01;11.10;;;5.93;;
6013;SDS011;3035;49.928;8.410;2023-06-10T08:20:30;19.97;;;6.20;;
6013;SDS011;3035;49.928;8.410;2023-06-10T08:23:00;6.93;;;5.90;;
6013;SDS011;3035;49.928;8.410;2023-06-10T08:25:29;9.53;;;5.83;;
6013;SDS011;3035;49.928;8.410;2023-06-10T08:27:58;6.37;;;5.30;;
6013;SDS011;3035;49.928;8.410;2023-06-10T08:30:27;10.80;;;4.97;;
6013;SDS011;3035;49.928;8.410;2023-06-10T08:32:57;8.97;;;5.23;;
6013;SDS011;3035;49.928;8.410;2023-06-10T08:35:26;10.00;;;5.33;;
6013;SDS011;3035;49.928;8.410;2023-06-10T08:37:55;8.97;;;5.67;;
6013;SDS011;3035;49.928;8.410;2023-06-10T08:40:24;6.90;;;5.50;;
6013;SDS011;3035;49.928;8.410;2023-06-10T08:45:59;6.93;;;5.37;;
6013;SDS011;3035;49.928;8.410;2023-06-10T08:48:29;8.87;;;5.97;;
6013;SDS011;3035;49.928;8.410;2023-06-10T08:50:57;6.80;;;4.97;;
6013;SDS011;3035;49.928;8.410;2023-06-10T08:53:26;9.00;;;5.47;;
6013;SDS011;3035;49.928;8.410;2023-06-10T08:55:55;6.40;;;5.63;;
6013;SDS011;3035;49.928;8.410;2023-06-10T08:58:25;8.20;;;6.07;;
6013;SDS011;3035;49.928;8.410;2023-06-10T09:00:54;11.23;;;5.83;;
6013;SDS011;3035;49.928;8.410;2023-06-10T09:03:23;11.20;;;6.00;;
6013;SDS011;3035;49.928;8.410;2023-06-10T09:05:52;7.93;;;6.07;;
6013;SDS011;3035;49.928;8.410;2023-06-10T09:08:22;16.37;;;6.00;;
6013;SDS011;3035;49.928;8.410;2023-06-10T09:10:51;8.03;;;6.07;;
6013;SDS011;3035;49.928;8.410;2023-06-10T09:13:20;6.90;;;5.33;;
6013;SDS011;3035;49.928;8.410;2023-06-10T09:15:49;6.60;;;5.50;;
6013;SDS011;3035;49.928;8.410;2023-06-10T09:18:19;7.57;;;6.03;;
6013;SDS011;3035;49.928;8.410;2023-06-10T09:20:48;8.00;;;4.93;;
6013;SDS011;3035;49.928;8.410;2023-06-10T09:23:17;7.60;;;6.07;;
6013;SDS011;3035;49.928;8.410;2023-06-10T09:25:53;6.93;;;5.60;;
6013;SDS011;3035;49.928;8.410;2023-06-10T09:28:16;11.43;;;5.70;;
6013;SDS011;3035;49.928;8.410;2023-06-10T09:30:45;12.03;;;5.37;;
6013;SDS011;3035;49.928;8.410;2023-06-10T09:33:14;6.50;;;5.57;;
6013;SDS011;3035;49.928;8.410;2023-06-10T09:35:45;6.93;;;5.30;;
6013;SDS011;3035;49.928;8.410;2023-06-10T09:38:19;5.80;;;5.20;;
6013;SDS011;3035;49.928;8.410;2023-06-10T09:40:48;11.00;;;5.90;;
6013;SDS011;3035;49.928;8.410;2023-06-10T09:43:20;7.33;;;4.97;;
6013;SDS011;3035;49.928;8.410;2023-06-10T09:45:49;5.50;;;4.97;;
6013;SDS011;3035;49.928;8.410;2023-06-10T09:48:21;7.13;;;5.40;;
6013;SDS011;3035;49.928;8.410;2023-06-10T09:50:50;7.57;;;5.30;;
6013;SDS011;3035;49.928;8.410;2023-06-10T09:53:20;6.90;;;5.07;;
6013;SDS011;3035;49.928;8.410;2023-06-10T09:55:48;10.43;;;5.00;;
6013;SDS011;3035;49.928;8.410;2023-06-10T09:58:18;5.97;;;4.43;;
6013;SDS011;3035;49.928;8.410;2023-06-10T10:00:52;7.00;;;4.50;;
6013;SDS011;3035;49.928;8.410;2023-06-10T10:03:22;10.27;;;5.30;;
6013;SDS011;3035;49.928;8.410;2023-06-10T10:05:57;7.63;;;5.30;;
6013;SDS011;3035;49.928;8.410;2023-06-10T10:08:26;8.70;;;5.73;;
6013;SDS011;3035;49.928;8.410;2023-06-10T10:10:56;6.50;;;4.57;;
6013;SDS011;3035;49.928;8.410;2023-06-10T10:13:25;7.63;;;4.40;;
6013;SDS011;3035;49.928;8.410;2023-06-10T10:15:55;7.47;;;5.27;;
6013;SDS011;3035;49.928;8.410;2023-06-10T10:18:24;7.77;;;4.57;;
6013;SDS011;3035;49.928;8.410;2023-06-10T10:20:52;9.73;;;5.20;;
6013;SDS011;3035;49.928;8.410;2023-06-10T10:23:24;5.20;;;4.70;;
6013;SDS011;3035;49.928;8.410;2023-06-10T10:25:52;7.73;;;4.60;;
6013;SDS011;3035;49.928;8.410;2023-06-10T10:28:21;8.13;;;5.10;;
6013;SDS011;3035;49.928;8.410;2023-06-10T10:30:52;10.10;;;4.97;;
6013;SDS011;3035;49.928;8.410;2023-06-10T10:33:20;5.67;;;4.57;;
6013;SDS011;3035;49.928;8.410;2023-06-10T10:35:49;9.07;;;5.00;;
6013;SDS011;3035;49.928;8.410;2023-06-10T10:38:19;7.83;;;4.80;;
6013;SDS011;3035;49.928;8.410;2023-06-10T10:40:48;11.90;;;5.33;;
6013;SDS011;3035;49.928;8.410;2023-06-10T10:43:17;5.83;;;5.00;;
6013;SDS011;3035;49.928;8.410;2023-06-10T10:45:55;5.37;;;4.73;;
6013;SDS011;3035;49.928;8.410;2023-06-10T10:48:16;5.53;;;5.00;;
6013;SDS011;3035;49.928;8.410;2023-06-10T10:50:49;8.60;;;5.10;;
6013;SDS011;3035;49.928;8.410;2023-06-10T10:53:14;8.90;;;5.40;;
6013;SDS011;3035;49.928;8.410;2023-06-10T10:55:44;7.13;;;4.97;;
6013;SDS011;3035;49.928;8.410;2023-06-10T10:58:13;11.80;;;4.40;;
6013;SDS011;3035;49.928;8.410;2023-06-10T11:00:43;5.40;;;4.43;;
6013;SDS011;3035;49.928;8.410;2023-06-10T11:03:13;7.63;;;4.53;;
6013;SDS011;3035;49.928;8.410;2023-06-10T11:05:45;5.70;;;4.53;;
6013;SDS011;3035;49.928;8.410;2023-06-10T11:08:13;7.10;;;4.17;;
6013;SDS011;3035;49.928;8.410;2023-06-10T11:13:21;21.83;;;4.50;;
6013;SDS011;3035;49.928;8.410;2023-06-10T11:15:50;4.93;;;4.30;;
6013;SDS011;3035;49.928;8.410;2023-06-10T11:20:55;7.37;;;5.40;;
6013;SDS011;3035;49.928;8.410;2023-06-10T11:23:26;6.50;;;4.80;;
6013;SDS011;3035;49.928;8.410;2023-06-10T11:31:33;5.60;;;4.40;;
6013;SDS011;3035;49.928;8.410;2023-06-10T11:34:02;22.17;;;5.47;;
6013;SDS011;3035;49.928;8.410;2023-06-10T11:36:32;6.33;;;3.67;;
6013;SDS011;3035;49.928;8.410;2023-06-10T11:39:02;13.20;;;4.60;;
6013;SDS011;3035;49.928;8.410;2023-06-10T11:41:31;5.00;;;4.50;;
6013;SDS011;3035;49.928;8.410;2023-06-10T11:44:02;7.17;;;4.20;;
6013;SDS011;3035;49.928;8.410;2023-06-10T11:46:31;4.47;;;4.00;;
6013;SDS011;3035;49.928;8.410;2023-06-10T11:49:00;4.40;;;3.70;;
6013;SDS011;3035;49.928;8.410;2023-06-10T11:51:33;6.53;;;3.73;;
6013;SDS011;3035;49.928;8.410;2023-06-10T11:54:01;4.47;;;3.67;;
6013;SDS011;3035;49.928;8.410;2023-06-10T11:56:30;4.50;;;4.10;;
6013;SDS011;3035;49.928;8.410;2023-06-10T11:59:00;5.03;;;3.73;;
6013;SDS011;3035;49.928;8.410;2023-06-10T12:01:34;8.77;;;4.10;;
6013;SDS011;3035;49.928;8.410;2023-06-10T12:04:02;7.67;;;4.20;;
6013;SDS011;3035;49.928;8.410;2023-06-10T12:06:39;5.03;;;4.23;;
6013;SDS011;3035;49.928;8.410;2023-06-10T12:09:24;4.63;;;3.97;;
6013;SDS011;3035;49.928;8.410;2023-06-10T12:11:56;4.90;;;3.03;;
6013;SDS011;3035;49.928;8.410;2023-06-10T12:17:35;4.47;;;3.17;;
6013;SDS011;3035;49.928;8.410;2023-06-10T12:20:08;4.03;;;2.93;;
6013;SDS011;3035;49.928;8.410;2023-06-10T12:22:38;8.03;;;2.87;;
6013;SDS011;3035;49.928;8.410;2023-06-10T12:25:07;5.57;;;3.47;;
6013;SDS011;3035;49.928;8.410;2023-06-10T12:27:37;4.47;;;2.90;;
6013;SDS011;3035;49.928;8.410;2023-06-10T12:30:06;3.70;;;2.70;;
6013;SDS011;3035;49.928;8.410;2023-06-10T12:32:39;8.77;;;2.73;;
6013;SDS011;3035;49.928;8.410;2023-06-10T12:35:09;6.23;;;2.70;;
6013;SDS011;3035;49.928;8.410;2023-06-10T12:37:38;3.13;;;2.37;;
6013;SDS011;3035;49.928;8.410;2023-06-10T12:40:07;7.47;;;3.00;;
6013;SDS011;3035;49.928;8.410;2023-06-10T12:42:37;3.70;;;3.40;;
6013;SDS011;3035;49.928;8.410;2023-06-10T12:45:06;7.20;;;3.07;;
6013;SDS011;3035;49.928;8.410;2023-06-10T12:47:37;9.03;;;3.80;;
6013;SDS011;3035;49.928;8.410;2023-06-10T12:50:06;3.70;;;3.03;;
6013;SDS011;3035;49.928;8.410;2023-06-10T12:52:35;4.90;;;3.23;;
6013;SDS011;3035;49.928;8.410;2023-06-10T12:55:04;4.23;;;3.13;;
6013;SDS011;3035;49.928;8.410;2023-06-10T12:57:34;4.80;;;3.10;;
6013;SDS011;3035;49.928;8.410;2023-06-10T13:00:03;5.07;;;3.20;;
6013;SDS011;3035;49.928;8.410;2023-06-10T13:02:33;5.40;;;3.27;;
6013;SDS011;3035;49.928;8.410;2023-06-10T13:05:02;4.13;;;3.20;;
6013;SDS011;3035;49.928;8.410;2023-06-10T13:07:31;6.73;;;3.13;;
6013;SDS011;3035;49.928;8.410;2023-06-10T13:10:01;4.43;;;3.13;;
6013;SDS011;3035;49.928;8.410;2023-06-10T13:12:30;7.40;;;3.00;;
6013;SDS011;3035;49.928;8.410;2023-06-10T13:14:59;5.23;;;2.90;;
6013;SDS011;3035;49.928;8.410;2023-06-10T13:17:29;3.53;;;3.23;;
6013;SDS011;3035;49.928;8.410;2023-06-10T13:19:58;3.60;;;2.90;;
6013;SDS011;3035;49.928;8.410;2023-06-10T13:22:27;3.53;;;2.97;;
6013;SDS011;3035;49.928;8.410;2023-06-10T13:24:56;3.30;;;2.73;;
6013;SDS011;3035;49.928;8.410;2023-06-10T13:27:26;3.00;;;2.80;;
6013;SDS011;3035;49.928;8.410;2023-06-10T13:29:55;4.23;;;3.20;;
6013;SDS011;3035;49.928;8.410;2023-06-10T13:32:24;3.90;;;3.50;;
6013;SDS011;3035;49.928;8.410;2023-06-10T13:34:53;3.67;;;3.10;;
6013;SDS011;3035;49.928;8.410;2023-06-10T13:37:23;4.17;;;3.30;;
6013;SDS011;3035;49.928;8.410;2023-06-10T13:39:52;11.80;;;3.50;;
6013;SDS011;3035;49.928;8.410;2023-06-10T13:42:21;5.00;;;3.27;;
6013;SDS011;3035;49.928;8.410;2023-06-10T13:44:50;3.80;;;3.40;;
6013;SDS011;3035;49.928;8.410;2023-06-10T13:47:20;4.10;;;3.10;;
6013;SDS011;3035;49.928;8.410;2023-06-10T13:49:49;7.40;;;4.07;;
6013;SDS011;3035;49.928;8.410;2023-06-10T13:52:18;6.07;;;3.70;;
6013;SDS011;3035;49.928;8.410;2023-06-10T13:54:48;8.27;;;3.70;;
6013;SDS011;3035;49.928;8.410;2023-06-10T13:57:17;8.43;;;3.70;;
6013;SDS011;3035;49.928;8.410;2023-06-10T13:59:46;4.83;;;3.40;;
6013;SDS011;3035;49.928;8.410;2023-06-10T14:02:15;3.70;;;3.30;;
6013;SDS011;3035;49.928;8.410;2023-06-10T14:04:45;3.60;;;3.17;;
6013;SDS011;3035;49.928;8.410;2023-06-10T14:07:14;4.73;;;2.97;;
6013;SDS011;3035;49.928;8.410;2023-06-10T14:09:43;3.80;;;3.50;;
6013;SDS011;3035;49.928;8.410;2023-06-10T14:12:12;3.27;;;2.97;;
6013;SDS011;3035;49.928;8.410;2023-06-10T14:14:42;4.43;;;3.80;;
6013;SDS011;3035;49.928;8.410;2023-06-10T14:17:11;4.27;;;2.83;;
6013;SDS011;3035;49.928;8.410;2023-06-10T14:19:40;4.10;;;3.33;;
6013;SDS011;3035;49.928;8.410;2023-06-10T14:22:09;6.20;;;3.10;;
6013;SDS011;3035;49.928;8.410;2023-06-10T14:24:39;4.37;;;3.30;;
6013;SDS011;3035;49.928;8.410;2023-06-10T14:27:08;4.12;;;3.33;;
6013;SDS011;3035;49.928;8.410;2023-06-10T14:29:37;7.12;;;3.12;;
6013;SDS011;3035;49.928;8.410;2023-06-10T14:32:07;3.50;;;2.83;;
6013;SDS011;3035;49.928;8.410;2023-06-10T14:34:36;5.40;;;3.73;;
6013;SDS011;3035;49.928;8.410;2023-06-10T14:37:05;4.53;;;3.20;;
6013;SDS011;3035;49.928;8.410;2023-06-10T14:39:34;4.03;;;3.37;;
6013;SDS011;3035;49.928;8.410;2023-06-10T14:42:04;7.43;;;3.20;;
6013;SDS011;3035;49.928;8.410;2023-06-10T14:44:33;4.90;;;3.07;;
6013;SDS011;3035;49.928;8.410;2023-06-10T14:47:02;4.20;;;3.00;;
6013;SDS011;3035;49.928;8.410;2023-06-10T14:49:32;3.55;;;3.25;;
6013;SDS011;3035;49.928;8.410;2023-06-10T14:52:01;8.63;;;3.60;;
6013;SDS011;3035;49.928;8.410;2023-06-10T14:54:30;3.22;;;2.87;;
6013;SDS011;3035;49.928;8.410;2023-06-10T14:57:00;3.67;;;3.37;;
6013;SDS011;3035;49.928;8.410;2023-06-10T14:59:29;4.00;;;2.93;;
6013;SDS011;3035;49.928;8.410;2023-06-10T15:01:58;4.23;;;2.87;;
6013;SDS011;3035;49.928;8.410;2023-06-10T15:04:27;7.13;;;3.70;;
6013;SDS011;3035;49.928;8.410;2023-06-10T15:06:57;5.20;;;3.23;;
6013;SDS011;3035;49.928;8.410;2023-06-10T15:09:26;3.60;;;3.00;;
6013;SDS011;3035;49.928;8.410;2023-06-10T15:11:55;3.20;;;2.93;;
6013;SDS011;3035;49.928;8.410;2023-06-10T15:14:25;3.47;;;3.17;;
6013;SDS011;3035;49.928;8.410;2023-06-10T15:16:54;7.97;;;3.40;;
6013;SDS011;3035;49.928;8.410;2023-06-10T15:19:23;4.40;;;3.23;;
6013;SDS011;3035;49.928;8.410;2023-06-10T15:21:52;5.50;;;3.80;;
6013;SDS011;3035;49.928;8.410;2023-06-10T15:24:22;8.70;;;3.43;;
6013;SDS011;3035;49.928;8.410;2023-06-10T15:26:51;4.23;;;3.30;;
6013;SDS011;3035;49.928;8.410;2023-06-10T15:29:20;8.60;;;3.77;;
6013;SDS011;3035;49.928;8.410;2023-06-10T15:31:49;5.50;;;3.23;;
6013;SDS011;3035;49.928;8.410;2023-06-10T15:34:19;4.23;;;3.20;;
6013;SDS011;3035;49.928;8.410;2023-06-10T15:36:48;4.83;;;3.43;;
6013;SDS011;3035;49.928;8.410;2023-06-10T15:39:17;4.87;;;3.97;;